Cemaes Bay, United Kingdom
Current Conditions -  °F | °C
As of 1:50 PM on Thursday 23 Oct 2014 (Local Time) from EGOV Reporting Station
Broken Clouds Broken Clouds  
Wind Chill: 15°   Ceiling: 1200
Heat Index: 15°   Visibility: 6mi
Dew Point: 14°   Wind: 24mph
Humidity: 94%   Direction: 210°SSW
Pressure: 29.91"   Gusts: NA
Location:  53.41°N, 4.46°W
Report Text: EGOV 231250Z 21021KT 9999 FEW009 BKN012 BKN020 15/14 Q1013 GRN TEMPO FEW012 BKN020 WHT
Loading
Personal Weather Stations






























Interactive Weather Map
Tropical Storm Tracking
New forecast layout! Learn more

10-Day Weather Forecast

Advertisements
Track Severe Weather on mobile